createdAt,value
2018-06-25T00:01:27.878Z,1.77
2018-06-25T00:03:56.094Z,2.00
2018-06-25T00:06:24.452Z,2.37
2018-06-25T00:08:52.957Z,2.47
2018-06-25T00:11:21.091Z,2.20
2018-06-25T00:13:49.614Z,2.20
2018-06-25T00:16:17.866Z,2.27
2018-06-25T00:18:46.650Z,2.30
2018-06-25T00:21:15.446Z,2.10
2018-06-25T00:23:43.930Z,2.20
2018-06-25T00:26:13.809Z,2.07
2018-06-25T00:28:42.162Z,2.13
2018-06-25T00:31:11.014Z,1.87
2018-06-25T00:33:39.213Z,1.90
2018-06-25T00:36:08.400Z,1.90
2018-06-25T00:38:36.969Z,1.90
2018-06-25T00:41:06.616Z,1.87
2018-06-25T00:43:34.733Z,1.97
2018-06-25T00:46:02.960Z,2.23
2018-06-25T00:48:31.686Z,1.70
2018-06-25T00:50:59.629Z,2.00
2018-06-25T00:53:27.833Z,2.03
2018-06-25T00:55:55.925Z,1.83
2018-06-25T00:58:24.315Z,1.67
2018-06-25T01:00:53.042Z,2.00
2018-06-25T01:03:21.365Z,2.17
2018-06-25T01:05:49.632Z,1.97
2018-06-25T01:08:18.541Z,2.17
2018-06-25T01:10:46.701Z,2.17
2018-06-25T01:13:14.847Z,2.13
2018-06-25T01:15:43.637Z,2.47
2018-06-25T01:18:11.873Z,2.00
2018-06-25T01:20:40.941Z,1.77
2018-06-25T01:23:09.557Z,2.47
2018-06-25T01:25:37.626Z,1.97
2018-06-25T01:28:07.092Z,2.20
2018-06-25T01:30:36.320Z,1.97
2018-06-25T01:33:04.714Z,2.33
2018-06-25T01:35:32.875Z,2.30
2018-06-25T01:38:01.142Z,2.00
2018-06-25T01:40:29.370Z,1.97
2018-06-25T01:42:57.241Z,2.17
2018-06-25T01:45:25.266Z,2.20
2018-06-25T01:47:53.535Z,2.07
2018-06-25T01:50:22.869Z,2.30
2018-06-25T01:52:51.662Z,2.33
2018-06-25T01:55:20.389Z,1.90
2018-06-25T01:57:48.731Z,1.87
2018-06-25T02:00:16.841Z,2.17
2018-06-25T02:02:45.669Z,2.97
2018-06-25T02:05:14.182Z,1.90
2018-06-25T02:07:42.233Z,2.27
2018-06-25T02:10:10.986Z,2.30
2018-06-25T02:12:39.052Z,2.60
2018-06-25T02:15:07.853Z,1.87
2018-06-25T02:17:36.146Z,2.30
2018-06-25T02:20:05.346Z,1.93
2018-06-25T02:22:33.570Z,2.13
2018-06-25T02:25:02.337Z,2.53
2018-06-25T02:27:31.023Z,2.50
2018-06-25T02:29:59.482Z,2.23
2018-06-25T02:32:28.266Z,2.27
2018-06-25T02:34:56.414Z,2.27
2018-06-25T02:37:25.113Z,2.47
2018-06-25T02:39:53.690Z,2.40
2018-06-25T02:42:22.164Z,2.60
2018-06-25T02:44:50.364Z,2.50
2018-06-25T02:47:19.677Z,2.50
2018-06-25T02:49:47.905Z,2.70
2018-06-25T02:52:16.317Z,2.70
2018-06-25T02:54:45.658Z,2.97
2018-06-25T02:57:14.185Z,2.80
2018-06-25T02:59:44.257Z,2.80
2018-06-25T03:02:13.639Z,2.90
2018-06-25T03:04:41.806Z,2.47
2018-06-25T03:07:09.938Z,2.23
2018-06-25T03:09:38.420Z,2.90
2018-06-25T03:12:06.613Z,2.90
2018-06-25T03:14:34.782Z,2.57
2018-06-25T03:17:03.468Z,2.80
2018-06-25T03:19:31.699Z,2.57
2018-06-25T03:21:59.845Z,2.43
2018-06-25T03:24:28.026Z,2.37
2018-06-25T03:26:56.378Z,2.57
2018-06-25T03:29:25.400Z,2.40
2018-06-25T03:31:54.366Z,2.10
2018-06-25T03:34:22.594Z,2.60
2018-06-25T03:36:51.345Z,2.30
2018-06-25T03:39:20.398Z,2.60
2018-06-25T03:41:48.631Z,2.53
2018-06-25T03:44:18.452Z,2.37
2018-06-25T03:46:47.079Z,2.57
2018-06-25T03:49:15.369Z,2.77
2018-06-25T03:51:44.195Z,2.77
2018-06-25T03:54:12.331Z,2.53
2018-06-25T03:56:40.606Z,2.10
2018-06-25T03:59:09.130Z,2.87
2018-06-25T04:01:37.275Z,2.87
2018-06-25T04:04:05.450Z,2.40
2018-06-25T04:06:34.453Z,2.80
2018-06-25T04:09:03.319Z,2.57
2018-06-25T04:11:31.517Z,2.60
2018-06-25T04:14:00.551Z,2.70
2018-06-25T04:16:28.521Z,2.33
2018-06-25T04:19:00.902Z,2.27
2018-06-25T04:21:29.133Z,2.73
2018-06-25T04:23:57.235Z,2.60
2018-06-25T04:26:25.361Z,2.40
2018-06-25T04:28:53.639Z,2.37
2018-06-25T04:31:22.210Z,2.30
2018-06-25T04:33:50.442Z,2.17
2018-06-25T04:36:19.044Z,2.23
2018-06-25T04:38:47.164Z,2.03
2018-06-25T04:41:15.884Z,2.10
2018-06-25T04:43:44.869Z,2.13
2018-06-25T04:46:13.135Z,1.93
2018-06-25T04:48:41.741Z,2.13
2018-06-25T04:51:10.150Z,2.33
2018-06-25T04:53:39.557Z,2.10
2018-06-25T04:56:07.770Z,2.23
2018-06-25T04:58:36.134Z,2.20
2018-06-25T05:01:04.420Z,2.07
2018-06-25T05:03:32.526Z,1.90
2018-06-25T05:06:01.258Z,2.40
2018-06-25T05:08:30.045Z,2.00
2018-06-25T05:10:59.161Z,2.00
2018-06-25T05:13:28.504Z,2.13
2018-06-25T05:15:56.594Z,2.07
2018-06-25T05:18:25.173Z,2.30
2018-06-25T05:20:53.828Z,2.07
2018-06-25T05:23:22.606Z,2.00
2018-06-25T05:25:50.779Z,1.97
2018-06-25T05:28:19.226Z,2.20
2018-06-25T05:30:48.069Z,2.17
2018-06-25T05:33:16.917Z,1.97
2018-06-25T05:35:45.379Z,2.10
2018-06-25T05:38:14.090Z,2.20
2018-06-25T05:40:42.648Z,2.10
2018-06-25T05:43:10.654Z,1.83
2018-06-25T05:45:38.801Z,2.07
2018-06-25T05:49:09.761Z,2.47
2018-06-25T05:51:38.562Z,2.27
2018-06-25T05:54:08.054Z,2.20
2018-06-25T05:56:36.862Z,2.25
2018-06-25T05:59:04.936Z,2.10
2018-06-25T06:01:34.155Z,2.27
2018-06-25T06:04:02.618Z,2.22
2018-06-25T06:06:30.748Z,2.20
2018-06-25T06:08:59.091Z,1.98
2018-06-25T06:11:27.202Z,2.00
2018-06-25T06:13:56.090Z,2.02
2018-06-25T06:16:25.067Z,2.30
2018-06-25T06:18:53.175Z,2.37
2018-06-25T06:21:21.357Z,2.08
2018-06-25T06:24:15.893Z,2.35
2018-06-25T06:26:44.057Z,2.33
2018-06-25T06:29:12.577Z,2.20
2018-06-25T06:31:40.848Z,2.67
2018-06-25T06:34:09.082Z,2.35
2018-06-25T06:36:37.737Z,2.37
2018-06-25T06:39:09.582Z,2.65
2018-06-25T06:41:39.242Z,2.95
2018-06-25T06:44:07.434Z,2.50
2018-06-25T06:46:36.863Z,2.75
2018-06-25T06:49:05.616Z,3.08
2018-06-25T06:51:33.964Z,3.22
2018-06-25T06:54:02.618Z,2.83
2018-06-25T06:56:31.017Z,2.65
2018-06-25T06:58:59.501Z,2.80
2018-06-25T07:01:27.713Z,3.00
2018-06-25T07:03:56.034Z,2.52
2018-06-25T07:06:24.641Z,2.55
2018-06-25T07:08:52.863Z,2.67
2018-06-25T07:11:20.982Z,3.12
2018-06-25T07:13:49.362Z,2.90
2018-06-25T07:16:17.579Z,3.08
2018-06-25T07:18:45.658Z,2.92
2018-06-25T07:21:14.410Z,3.05
2018-06-25T07:23:43.115Z,2.75
2018-06-25T07:26:11.486Z,3.67
2018-06-25T07:28:39.678Z,3.17
2018-06-25T07:31:09.182Z,3.45
2018-06-25T07:33:37.533Z,3.02
2018-06-25T07:36:06.438Z,3.92
2018-06-25T07:38:34.637Z,3.22
2018-06-25T07:41:03.229Z,3.65
2018-06-25T07:43:31.966Z,3.60
2018-06-25T07:46:00.578Z,4.15
2018-06-25T07:48:28.707Z,3.37
2018-06-25T07:50:57.053Z,3.67
2018-06-25T07:53:26.023Z,3.60
2018-06-25T07:55:54.357Z,4.10
2018-06-25T07:58:23.229Z,3.77
2018-06-25T08:00:52.493Z,3.35
2018-06-25T08:03:21.564Z,3.60
2018-06-25T08:05:49.645Z,4.30
2018-06-25T08:08:18.269Z,4.62
2018-06-25T08:10:46.878Z,3.87
2018-06-25T08:13:14.997Z,4.17
2018-06-25T08:15:43.159Z,4.12
2018-06-25T08:18:12.285Z,4.33
2018-06-25T08:20:40.701Z,3.60
2018-06-25T08:23:09.281Z,3.58
2018-06-25T08:25:37.380Z,3.90
2018-06-25T08:28:06.605Z,4.67
2018-06-25T08:30:34.805Z,4.47
2018-06-25T08:33:03.209Z,5.08
2018-06-25T08:35:31.661Z,4.50
2018-06-25T08:38:01.966Z,5.03
2018-06-25T08:40:30.036Z,4.42
2018-06-25T08:42:58.417Z,3.72
2018-06-25T08:45:27.238Z,3.72
2018-06-25T08:47:56.357Z,3.90
2018-06-25T08:50:24.222Z,3.70
2018-06-25T08:52:52.162Z,4.15
2018-06-25T08:55:20.964Z,4.17
2018-06-25T08:57:49.384Z,4.47
2018-06-25T09:00:17.795Z,4.28
2018-06-25T09:02:45.961Z,6.53
2018-06-25T09:05:17.743Z,7.22
2018-06-25T09:07:46.802Z,7.03
2018-06-25T09:10:14.986Z,6.90
2018-06-25T09:12:44.770Z,7.62
2018-06-25T09:15:13.020Z,8.03
2018-06-25T09:17:42.304Z,6.83
2018-06-25T09:20:10.934Z,7.15
2018-06-25T09:22:39.775Z,7.20
2018-06-25T09:25:07.834Z,6.60
2018-06-25T09:27:42.404Z,7.22
2018-06-25T09:30:10.817Z,6.87
2018-06-25T09:32:39.047Z,6.70
2018-06-25T09:35:07.193Z,6.78
2018-06-25T09:37:35.647Z,7.10
2018-06-25T09:40:04.021Z,7.37
2018-06-25T09:42:32.634Z,7.00
2018-06-25T09:45:00.898Z,7.87
2018-06-25T09:47:29.353Z,7.00
2018-06-25T09:49:58.503Z,7.28
2018-06-25T09:52:26.624Z,6.78
2018-06-25T09:54:55.468Z,6.65
2018-06-25T09:57:24.155Z,6.25
2018-06-25T09:59:52.266Z,5.80
2018-06-25T10:02:20.560Z,6.55
2018-06-25T10:04:49.360Z,5.83
2018-06-25T10:07:17.578Z,5.85
2018-06-25T10:09:45.705Z,5.25
2018-06-25T10:12:14.403Z,4.17
2018-06-25T10:14:42.830Z,4.20
2018-06-25T10:17:10.672Z,4.00
2018-06-25T10:19:39.042Z,4.10
2018-06-25T10:22:07.126Z,4.30
2018-06-25T10:24:37.000Z,4.60
2018-06-25T10:27:05.941Z,4.45
2018-06-25T10:29:34.050Z,4.70
2018-06-25T10:32:02.923Z,3.55
2018-06-25T10:34:31.272Z,4.12
2018-06-25T10:36:59.602Z,3.58
2018-06-25T10:39:28.369Z,3.40
2018-06-25T10:41:56.524Z,3.45
2018-06-25T10:44:24.976Z,3.25
2018-06-25T10:46:53.201Z,3.87
2018-06-25T10:49:21.108Z,3.45
2018-06-25T10:51:49.396Z,3.27
2018-06-25T10:54:18.582Z,3.95
2018-06-25T10:56:48.170Z,3.50
2018-06-25T10:59:17.439Z,3.08
2018-06-25T11:01:45.791Z,3.58
2018-06-25T11:04:14.465Z,3.22
2018-06-25T11:06:42.681Z,3.67
2018-06-25T11:09:12.159Z,3.17
2018-06-25T11:11:40.348Z,3.70
2018-06-25T11:14:08.507Z,3.90
2018-06-25T11:16:36.665Z,3.80
2018-06-25T11:19:06.350Z,3.77
2018-06-25T11:21:34.705Z,3.17
2018-06-25T11:24:03.690Z,3.85
2018-06-25T11:26:32.372Z,3.90
2018-06-25T11:29:01.074Z,3.33
2018-06-25T11:31:29.673Z,3.67
2018-06-25T11:33:57.930Z,3.27
2018-06-25T11:36:25.862Z,3.30
2018-06-25T11:38:54.007Z,3.30
2018-06-25T11:41:23.691Z,3.22
2018-06-25T11:43:51.537Z,3.47
2018-06-25T11:46:19.706Z,3.27
2018-06-25T11:48:48.370Z,3.27
2018-06-25T11:51:20.525Z,3.25
2018-06-25T11:53:48.696Z,3.05
2018-06-25T11:56:17.322Z,3.70
2018-06-25T11:58:45.865Z,3.30
2018-06-25T12:01:14.253Z,3.58
2018-06-25T12:03:43.044Z,3.30
2018-06-25T12:06:11.947Z,3.87
2018-06-25T12:08:41.145Z,3.25
2018-06-25T12:11:09.338Z,3.50
2018-06-25T12:13:38.202Z,3.00
2018-06-25T12:16:06.901Z,3.30
2018-06-25T12:18:35.787Z,3.25
2018-06-25T12:21:03.935Z,3.92
2018-06-25T12:23:32.519Z,3.67
2018-06-25T12:26:00.678Z,3.33
2018-06-25T12:28:28.902Z,2.90
2018-06-25T12:30:57.049Z,3.65
2018-06-25T12:33:25.122Z,2.70
2018-06-25T12:35:53.721Z,2.98
2018-06-25T12:38:22.422Z,2.98
2018-06-25T12:40:54.391Z,3.00
2018-06-25T12:43:23.365Z,2.87
2018-06-25T12:45:51.522Z,2.80
2018-06-25T12:48:21.113Z,3.25
2018-06-25T12:50:49.237Z,2.90
2018-06-25T12:53:19.393Z,3.20
2018-06-25T12:55:47.746Z,2.92
2018-06-25T12:58:16.926Z,2.45
2018-06-25T13:00:45.594Z,2.27
2018-06-25T13:03:13.803Z,2.85
2018-06-25T13:05:41.927Z,2.55
2018-06-25T13:08:10.267Z,2.95
2018-06-25T13:10:38.558Z,2.55
2018-06-25T13:13:07.218Z,2.75
2018-06-25T13:15:35.608Z,2.75
2018-06-25T13:18:04.050Z,2.42
2018-06-25T13:20:32.288Z,2.50
2018-06-25T13:23:00.277Z,2.90
2018-06-25T13:25:28.889Z,2.52
2018-06-25T13:27:56.929Z,2.50
2018-06-25T13:30:25.169Z,2.40
2018-06-25T13:32:53.639Z,2.98
2018-06-25T13:35:22.121Z,2.40
2018-06-25T13:37:50.221Z,3.77
2018-06-25T13:40:18.138Z,2.87
2018-06-25T13:42:46.339Z,2.87
2018-06-25T13:45:14.505Z,3.10
2018-06-25T13:47:43.023Z,3.27
2018-06-25T13:50:11.181Z,3.55
2018-06-25T13:52:39.329Z,2.75
2018-06-25T13:55:08.929Z,3.20
2018-06-25T13:57:37.006Z,2.87
2018-06-25T14:00:07.304Z,3.08
2018-06-25T14:02:36.338Z,3.17
2018-06-25T14:05:04.568Z,3.02
2018-06-25T14:07:33.944Z,3.00
2018-06-25T14:10:02.207Z,2.70
2018-06-25T14:12:30.186Z,2.83
2018-06-25T14:14:58.466Z,3.20
2018-06-25T14:17:26.598Z,3.17
2018-06-25T14:19:55.330Z,3.00
2018-06-25T14:22:23.598Z,2.58
2018-06-25T14:24:57.929Z,3.02
2018-06-25T14:27:25.883Z,3.40
2018-06-25T14:29:54.001Z,2.87
2018-06-25T14:32:27.607Z,2.72
2018-06-25T14:35:01.801Z,3.20
2018-06-25T14:37:29.733Z,2.87
2018-06-25T14:39:57.887Z,2.90
2018-06-25T14:42:26.405Z,2.30
2018-06-25T14:44:56.378Z,2.42
2018-06-25T14:47:25.401Z,2.50
2018-06-25T14:49:53.594Z,2.42
2018-06-25T14:52:22.285Z,1.92
2018-06-25T14:54:50.643Z,2.12
2018-06-25T14:57:19.349Z,2.15
2018-06-25T14:59:48.870Z,1.80
2018-06-25T15:02:18.229Z,2.15
2018-06-25T15:04:46.500Z,2.12
2018-06-25T15:07:15.493Z,1.92
2018-06-25T15:09:43.702Z,1.80
2018-06-25T15:12:11.737Z,1.80
2018-06-25T15:14:40.137Z,2.12
2018-06-25T15:17:08.257Z,1.60
2018-06-25T15:19:37.123Z,1.90
2018-06-25T15:22:05.818Z,2.20
2018-06-25T15:24:33.869Z,2.22
2018-06-25T15:27:02.244Z,1.70
2018-06-25T15:29:31.109Z,1.60
2018-06-25T15:32:00.559Z,2.10
2018-06-25T15:34:28.582Z,2.25
2018-06-25T15:36:56.774Z,2.50
2018-06-25T15:39:26.302Z,2.02
2018-06-25T15:41:55.273Z,1.62
2018-06-25T15:44:23.657Z,1.82
2018-06-25T15:46:51.803Z,1.90
2018-06-25T15:49:20.026Z,1.60
2018-06-25T15:51:47.958Z,1.70
2018-06-25T15:54:16.122Z,1.30
2018-06-25T15:56:44.521Z,1.65
2018-06-25T15:59:13.019Z,1.50
2018-06-25T16:01:41.138Z,1.30
2018-06-25T16:04:09.490Z,1.35
2018-06-25T16:06:37.667Z,1.85
2018-06-25T16:09:06.338Z,1.82
2018-06-25T16:11:34.499Z,2.17
2018-06-25T16:14:03.355Z,2.05
2018-06-25T16:16:32.263Z,2.02
2018-06-25T16:19:00.823Z,2.02
2018-06-25T16:21:31.242Z,1.85
2018-06-25T16:23:59.495Z,2.58
2018-06-25T16:26:28.457Z,2.45
2018-06-25T16:28:56.598Z,2.27
2018-06-25T16:31:30.714Z,2.62
2018-06-25T16:33:58.937Z,2.73
2018-06-25T16:36:27.469Z,2.42
2018-06-25T16:38:56.070Z,2.75
2018-06-25T16:41:24.498Z,2.72
2018-06-25T16:43:52.638Z,2.50
2018-06-25T16:46:20.742Z,3.03
2018-06-25T16:48:48.716Z,2.42
2018-06-25T16:51:16.844Z,2.17
2018-06-25T16:53:45.345Z,2.50
2018-06-25T16:56:13.526Z,2.50
2018-06-25T16:58:41.978Z,2.80
2018-06-25T17:01:10.798Z,2.90
2018-06-25T17:03:38.921Z,3.10
2018-06-25T17:06:07.958Z,3.43
2018-06-25T17:08:36.953Z,3.17
2018-06-25T17:11:05.014Z,3.43
2018-06-25T17:13:33.934Z,3.07
2018-06-25T17:16:02.618Z,2.97
2018-06-25T17:18:33.326Z,3.05
2018-06-25T17:21:01.699Z,2.80
2018-06-25T17:23:30.714Z,3.15
2018-06-25T17:25:59.002Z,3.33
2018-06-25T17:28:27.941Z,3.03
2018-06-25T17:30:58.042Z,4.03
2018-06-25T17:33:25.964Z,3.93
2018-06-25T17:35:54.550Z,3.90
2018-06-25T17:38:22.937Z,4.10
2018-06-25T17:40:52.675Z,4.20
2018-06-25T17:43:20.807Z,4.17
2018-06-25T17:45:49.035Z,4.20
2018-06-25T17:48:16.956Z,3.50
2018-06-25T17:50:45.653Z,3.70
2018-06-25T17:53:13.812Z,3.87
2018-06-25T17:55:42.713Z,4.33
2018-06-25T17:58:11.977Z,3.53
2018-06-25T18:00:40.189Z,4.33
2018-06-25T18:03:08.386Z,3.40
2018-06-25T18:05:36.512Z,4.23
2018-06-25T18:08:04.774Z,4.07
2018-06-25T18:10:32.993Z,4.23
2018-06-25T18:13:01.514Z,4.30
2018-06-25T18:15:30.201Z,4.30
2018-06-25T18:17:58.441Z,4.50
2018-06-25T18:20:26.590Z,4.70
2018-06-25T18:22:55.114Z,4.80
2018-06-25T18:25:23.679Z,4.40
2018-06-25T18:27:51.823Z,4.73
2018-06-25T18:30:20.061Z,4.67
2018-06-25T18:32:48.016Z,4.80
2018-06-25T18:35:16.093Z,4.47
2018-06-25T18:37:44.957Z,4.37
2018-06-25T18:40:13.120Z,4.53
2018-06-25T18:42:41.949Z,4.60
2018-06-25T18:45:10.093Z,4.67
2018-06-25T18:47:38.244Z,5.07
2018-06-25T18:50:06.963Z,5.97
2018-06-25T18:52:35.117Z,4.93
2018-06-25T18:55:03.314Z,5.03
2018-06-25T18:57:31.485Z,4.73
2018-06-25T18:59:59.578Z,4.83
2018-06-25T19:02:28.546Z,4.87
2018-06-25T19:04:56.710Z,4.97
2018-06-25T19:07:24.913Z,4.87
2018-06-25T19:09:53.008Z,5.13
2018-06-25T19:12:20.914Z,5.40
2018-06-25T19:14:49.110Z,5.97
2018-06-25T19:17:17.394Z,6.00
2018-06-25T19:19:45.818Z,6.43
2018-06-25T19:22:14.066Z,6.00
2018-06-25T19:24:43.429Z,6.20
2018-06-25T19:27:11.979Z,6.67
2018-06-25T19:29:39.856Z,5.93
2018-06-25T19:32:08.525Z,6.13
2018-06-25T19:34:36.939Z,5.73
2018-06-25T19:37:05.682Z,5.97
2018-06-25T19:39:33.806Z,5.70
2018-06-25T19:42:02.652Z,5.40
2018-06-25T19:44:31.608Z,5.73
2018-06-25T19:47:01.405Z,6.43
2018-06-25T19:49:29.831Z,6.23
2018-06-25T19:51:58.076Z,6.73
2018-06-25T19:54:26.246Z,6.23
2018-06-25T19:56:55.099Z,5.43
2018-06-25T19:59:23.377Z,5.17
2018-06-25T20:01:52.114Z,5.77
2018-06-25T20:04:20.317Z,5.33
2018-06-25T20:06:48.285Z,5.03
2018-06-25T20:09:16.238Z,5.40
2018-06-25T20:11:44.263Z,4.60
2018-06-25T20:14:12.605Z,4.50
2018-06-25T20:16:41.149Z,5.00
2018-06-25T20:19:10.126Z,4.50
2018-06-25T20:21:38.345Z,4.23
2018-06-25T20:24:06.479Z,3.87
2018-06-25T20:26:35.019Z,4.13
2018-06-25T20:29:03.394Z,4.30
2018-06-25T20:31:31.642Z,4.10
2018-06-25T20:33:59.770Z,4.70
2018-06-25T20:36:27.990Z,5.03
2018-06-25T20:38:56.734Z,5.20
2018-06-25T20:41:25.098Z,5.50
2018-06-25T20:43:53.907Z,5.90
2018-06-25T20:46:22.655Z,5.57
2018-06-25T20:48:51.215Z,6.20
2018-06-25T20:51:19.382Z,5.57
2018-06-25T20:53:47.558Z,5.23
2018-06-25T20:56:15.715Z,5.70
2018-06-25T20:58:44.452Z,5.30
2018-06-25T21:01:12.901Z,5.00
2018-06-25T21:03:41.061Z,5.13
2018-06-25T21:06:09.324Z,4.93
2018-06-25T21:08:37.556Z,4.73
2018-06-25T21:11:06.378Z,5.10
2018-06-25T21:13:35.094Z,4.77
2018-06-25T21:16:04.525Z,5.00
2018-06-25T21:18:33.221Z,4.87
2018-06-25T21:21:01.355Z,4.80
2018-06-25T21:23:29.510Z,3.90
2018-06-25T21:25:58.099Z,3.50
2018-06-25T21:28:26.289Z,2.97
2018-06-25T21:30:55.066Z,3.27
2018-06-25T21:33:23.302Z,2.97
2018-06-25T21:35:51.243Z,3.17
2018-06-25T21:38:19.302Z,2.80
2018-06-25T21:40:47.459Z,3.30
2018-06-25T21:43:15.693Z,2.70
2018-06-25T21:45:43.578Z,2.60
2018-06-25T21:48:12.617Z,2.60
2018-06-25T21:50:41.279Z,3.00
2018-06-25T21:53:09.503Z,3.03
2018-06-25T21:55:37.764Z,3.27
2018-06-25T21:58:06.338Z,3.00
2018-06-25T22:00:48.621Z,3.20
2018-06-25T22:03:17.623Z,3.27
2018-06-25T22:05:46.466Z,3.00
2018-06-25T22:08:15.232Z,2.87
2018-06-25T22:10:44.211Z,3.30
2018-06-25T22:13:12.970Z,2.97
2018-06-25T22:15:41.234Z,2.77
2018-06-25T22:18:09.970Z,2.80
2018-06-25T22:20:38.133Z,2.80
2018-06-25T22:23:06.190Z,2.70
2018-06-25T22:25:34.269Z,2.67
2018-06-25T22:28:02.752Z,2.57
2018-06-25T22:30:31.315Z,2.67
2018-06-25T22:32:59.446Z,3.30
2018-06-25T22:35:27.853Z,3.10
2018-06-25T22:37:56.058Z,2.87
2018-06-25T22:40:24.657Z,3.03
2018-06-25T22:42:52.858Z,3.23
2018-06-25T22:45:21.894Z,2.67
2018-06-25T22:47:50.516Z,2.93
2018-06-25T22:50:18.673Z,3.10
2018-06-25T22:52:48.777Z,2.80
2018-06-25T22:55:16.986Z,3.00
2018-06-25T22:57:45.262Z,2.87
2018-06-25T23:00:13.385Z,2.97
2018-06-25T23:02:42.070Z,2.67
2018-06-25T23:05:10.397Z,2.60
2018-06-25T23:07:38.593Z,2.47
2018-06-25T23:10:06.730Z,2.50
2018-06-25T23:12:35.894Z,2.60
2018-06-25T23:15:04.460Z,3.00
2018-06-25T23:17:32.913Z,3.10
2018-06-25T23:20:01.504Z,2.90
2018-06-25T23:22:30.185Z,2.70
2018-06-25T23:24:58.139Z,2.80
2018-06-25T23:27:27.093Z,2.70
2018-06-25T23:29:55.885Z,2.77
2018-06-25T23:32:24.809Z,2.80
2018-06-25T23:35:56.741Z,2.87
2018-06-25T23:38:26.163Z,2.80
2018-06-25T23:40:55.156Z,2.60
2018-06-25T23:43:23.704Z,3.20
2018-06-25T23:45:51.616Z,3.00
2018-06-25T23:48:20.061Z,3.20
2018-06-25T23:50:49.049Z,2.50
2018-06-25T23:53:17.285Z,2.93
2018-06-25T23:55:46.306Z,3.07
2018-06-25T23:58:14.790Z,3.20
